Time;durP1;ratioP1;P1;durP2;ratioP2;P2;SDS_P1;SDS_P2;PMS_P1;PMS_P2;Temp;Humidity;BMP_temperature;BMP_pressure;BME280_temperature;BME280_humidity;BME280_pressure;Samples;Min_cycle;Max_cycle;Signal;HPM_P1;HPM_P2
2023/05/02 00:00:04;;;;;;;11.90;10.63;;;;;;;14.17;92.36;100764.69;4979648;28;20507;-85
2023/05/02 00:02:35;;;;;;;14.25;10.63;;;;;;;14.33;92.35;100788.84;4981972;28;20349;-84
2023/05/02 00:05:02;;;;;;;13.75;11.55;;;;;;;13.99;92.83;100742.53;4963337;28;20070;-87
2023/05/02 00:07:29;;;;;;;12.10;10.77;;;;;;;13.93;93.65;100732.47;4949849;28;20181;-87
2023/05/02 00:10:02;;;;;;;13.85;11.45;;;;;;;14.12;94.03;100766.97;4948237;28;20126;-89
2023/05/02 00:12:35;;;;;;;12.77;11.52;;;;;;;13.80;93.83;100701.69;4912407;28;20674;-88
2023/05/02 00:15:05;;;;;;;11.80;10.60;;;;;;;14.32;94.50;100775.63;4926098;28;20393;-87
2023/05/02 00:17:31;;;;;;;13.90;11.43;;;;;;;14.29;92.26;100743.91;4934712;28;20488;-89
2023/05/02 00:19:58;;;;;;;13.25;11.02;;;;;;;14.45;92.55;100770.72;4933759;28;20260;-89
2023/05/02 00:22:31;;;;;;;12.20;10.98;;;;;;;14.36;93.21;100765.50;4923566;28;20447;-78
2023/05/02 00:25:05;;;;;;;12.48;10.93;;;;;;;14.31;93.05;100742.75;4917991;28;20047;-82
2023/05/02 00:27:32;;;;;;;13.02;10.80;;;;;;;14.13;93.61;100711.75;4917194;28;20386;-83
2023/05/02 00:29:59;;;;;;;12.20;10.68;;;;;;;14.33;92.81;100740.75;4925356;28;20375;-83
2023/05/02 00:32:34;;;;;;;14.18;11.00;;;;;;;14.36;93.25;100738.78;4917095;28;20543;-87
2023/05/02 00:35:17;;;;;;;13.20;10.93;;;;;;;14.10;93.90;100692.41;4889122;28;20055;-88
2023/05/02 00:38:01;;;;;;;13.05;10.63;;;;;;;14.25;93.46;100711.34;4884196;28;20333;-87
2023/05/02 00:40:27;;;;;;;11.90;10.70;;;;;;;14.38;93.71;100731.44;4925487;28;20718;-89
2023/05/02 00:42:55;;;;;;;12.95;11.18;;;;;;;13.82;94.15;100649.00;4935319;28;20209;-86
2023/05/02 00:45:22;;;;;;;14.65;10.32;;;;;;;14.07;93.41;100671.34;4917687;29;20295;-85
2023/05/02 00:47:49;;;;;;;11.98;10.77;;;;;;;14.39;93.68;100709.91;4897140;28;20489;-77
2023/05/02 00:50:16;;;;;;;11.45;10.18;;;;;;;14.32;93.40;100699.03;4903760;28;20054;-86
2023/05/02 00:52:50;;;;;;;11.73;10.43;;;;;;;14.22;93.12;100684.13;4873970;29;20309;-85
2023/05/02 00:55:28;;;;;;;11.32;10.15;;;;;;;14.13;94.11;100685.06;4903195;28;20143;-83
2023/05/02 00:57:57;;;;;;;11.88;9.85;;;;;;;14.16;94.72;100706.94;4891577;29;20122;-85
2023/05/02 01:00:39;;;;;;;11.88;9.25;;;;;;;14.20;94.24;100696.78;4923406;29;20051;-85
2023/05/02 01:03:23;;;;;;;11.15;9.80;;;;;;;14.25;93.97;100692.66;4934602;28;20062;-84
2023/05/02 01:06:04;;;;;;;9.52;8.63;;;;;;;13.57;93.83;100592.00;4940468;28;20065;-84
2023/05/02 01:08:51;;;;;;;9.98;8.93;;;;;;;14.35;93.56;100694.38;4943421;28;20455;-82
2023/05/02 01:11:50;;;;;;;11.70;9.00;;;;;;;14.23;93.58;100681.31;4941794;28;20050;-83
2023/05/02 01:14:22;;;;;;;9.82;8.82;;;;;;;14.20;93.47;100670.09;4960429;28;20058;-88
2023/05/02 01:16:51;;;;;;;;;;;;;;;14.26;94.15;100696.16;4958725;28;20057;-82
2023/05/02 01:19:28;;;;;;;8.85;7.95;;;;;;;14.15;94.66;100677.72;4943473;28;20042;-84
2023/05/02 01:22:04;;;;;;;8.95;8.00;;;;;;;14.14;93.78;100655.53;4950951;28;20283;-89
2023/05/02 01:24:56;;;;;;;9.40;8.27;;;;;;;14.34;93.85;100693.53;4948363;28;20050;-86
2023/05/02 01:27:47;;;;;;;9.75;8.57;;;;;;;14.35;93.57;100684.53;4954367;28;20564;-82
2023/05/02 01:30:17;;;;;;;8.70;7.80;;;;;;;14.36;93.84;100685.38;4928445;28;20050;-83
2023/05/02 01:32:46;;;;;;;9.75;8.85;;;;;;;13.93;94.10;100620.38;4938683;28;20058;-84
2023/05/02 01:35:19;;;;;;;11.32;9.23;;;;;;;14.26;94.17;100664.94;4959714;28;20050;-85
2023/05/02 01:37:51;;;;;;;9.10;8.20;;;;;;;14.38;94.35;100689.56;4965816;28;20382;-87
2023/05/02 01:40:21;;;;;;;9.75;7.50;;;;;;;13.85;94.21;100608.66;4932656;28;20484;-90
2023/05/02 01:42:54;;;;;;;9.45;7.75;;;;;;;14.31;93.78;100669.81;4931801;28;20348;-91
2023/05/02 01:45:29;;;;;;;9.18;7.80;;;;;;;14.09;94.23;100632.00;4892611;28;20105;-88
2023/05/02 01:48:00;;;;;;;8.02;7.28;;;;;;;13.29;94.62;100511.28;4904011;28;20057;-83
2023/05/02 01:50:27;;;;;;;9.32;8.45;;;;;;;13.95;95.14;100624.56;4938539;28;20383;-81
2023/05/02 01:52:57;;;;;;;9.18;8.38;;;;;;;14.14;95.83;100668.06;4923352;28;20057;-83
2023/05/02 01:55:27;;;;;;;9.43;8.60;;;;;;;14.11;95.65;100639.84;4960777;28;20733;-80
2023/05/02 01:57:58;;;;;;;9.68;8.68;;;;;;;14.33;94.62;100673.19;4930236;28;20441;-77
2023/05/02 02:00:25;;;;;;;10.70;9.23;;;;;;;14.39;94.57;100674.34;4934175;28;20855;-83
2023/05/02 02:02:53;;;;;;;12.50;9.05;;;;;;;13.97;94.92;100611.06;4940924;28;20069;-83
2023/05/02 02:05:24;;;;;;;10.02;8.98;;;;;;;14.41;94.12;100672.38;4946659;28;20046;-82
2023/05/02 02:07:50;;;;;;;10.82;9.38;;;;;;;14.20;93.95;100643.38;4953301;28;20370;-78
2023/05/02 02:10:21;;;;;;;10.23;9.05;;;;;;;14.31;94.66;100662.63;4961062;28;20555;-86
2023/05/02 02:12:56;;;;;;;9.40;7.90;;;;;;;14.23;94.39;100648.44;4966938;28;20237;-80
2023/05/02 02:15:27;;;;;;;9.45;8.55;;;;;;;14.27;95.70;100669.31;4940424;28;20460;-81
2023/05/02 02:17:59;;;;;;;8.38;7.53;;;;;;;14.19;95.56;100669.25;4928628;28;20403;-84
2023/05/02 02:20:29;;;;;;;9.13;7.93;;;;;;;13.62;95.95;100565.69;4930898;28;20120;-84
2023/05/02 02:22:57;;;;;;;9.32;8.40;;;;;;;13.75;96.09;100591.09;4926524;28;20902;-85
2023/05/02 02:25:25;;;;;;;8.32;7.35;;;;;;;14.25;95.20;100673.97;4934081;28;20112;-77
2023/05/02 02:27:52;;;;;;;7.60;6.82;;;;;;;14.04;95.32;100634.31;4936568;28;20481;-76
2023/05/02 02:30:21;;;;;;;8.10;7.30;;;;;;;14.08;95.31;100635.66;4943083;28;20065;-84
2023/05/02 02:32:55;;;;;;;8.23;6.88;;;;;;;13.44;95.38;100544.38;4938233;28;20353;-75
2023/05/02 02:35:27;;;;;;;8.15;7.38;;;;;;;14.22;95.26;100658.25;4936951;28;20285;-74
2023/05/02 02:38:17;;;;;;;8.55;6.93;;;;;;;14.24;94.95;100664.28;4947571;28;20081;-75
2023/05/02 02:40:53;;;;;;;8.68;7.18;;;;;;;14.28;94.42;100660.28;4929219;28;20412;-77
2023/05/02 02:43:44;;;;;;;8.52;7.20;;;;;;;14.05;93.88;100640.47;4948147;28;20100;-78
2023/05/02 02:46:41;;;;;;;8.63;6.82;;;;;;;13.70;94.96;100583.56;4957581;28;20456;-82
2023/05/02 02:49:36;;;;;;;8.18;6.97;;;;;;;13.94;94.86;100622.06;4935699;28;20093;-80
2023/05/02 02:52:14;;;;;;;7.93;7.13;;;;;;;14.23;94.30;100670.63;4923411;28;20133;-81
2023/05/02 02:54:53;;;;;;;11.48;7.22;;;;;;;14.11;94.84;100647.84;4916143;28;20231;-77
2023/05/02 02:57:44;;;;;;;8.63;7.40;;;;;;;13.52;94.42;100564.09;4953697;28;20429;-81
2023/05/02 03:00:23;;;;;;;10.43;7.07;;;;;;;14.09;95.09;100663.19;4960111;28;20137;-89
2023/05/02 03:03:07;;;;;;;9.57;6.85;;;;;;;14.08;95.11;100662.38;4932866;28;20054;-82
2023/05/02 03:05:34;;;;;;;8.32;6.78;;;;;;;14.02;95.71;100646.13;4913477;28;20910;-80
2023/05/02 03:08:01;;;;;;;8.98;7.55;;;;;;;13.84;95.85;100628.34;4949143;28;20058;-85
2023/05/02 03:10:28;;;;;;;8.15;7.35;;;;;;;13.98;96.93;100666.97;4944095;28;20059;-84
2023/05/02 03:12:58;;;;;;;8.02;6.80;;;;;;;13.95;96.41;100650.44;4949554;28;20057;-84
2023/05/02 03:15:57;;;;;;;9.73;7.50;;;;;;;14.25;95.33;100670.47;4926720;28;20138;-86
2023/05/02 03:18:28;;;;;;;7.90;7.10;;;;;;;14.05;95.81;100672.50;4947631;28;20074;-87
2023/05/02 03:20:55;;;;;;;7.47;6.78;;;;;;;13.69;95.12;100581.91;4960857;28;20719;-83
2023/05/02 03:23:27;;;;;;;7.13;6.43;;;;;;;14.12;95.40;100662.88;4936804;28;20078;-84
2023/05/02 03:25:53;;;;;;;7.07;6.22;;;;;;;14.05;95.88;100659.16;4934880;28;20109;-74
2023/05/02 03:28:25;;;;;;;8.95;6.55;;;;;;;14.04;94.66;100655.66;4924764;28;20047;-84
2023/05/02 03:30:58;;;;;;;8.35;6.10;;;;;;;14.03;95.85;100675.34;4933952;28;20485;-86
2023/05/02 03:33:24;;;;;;;7.00;6.38;;;;;;;13.77;96.07;100624.63;4942008;28;20516;-83
2023/05/02 03:35:51;;;;;;;7.38;6.47;;;;;;;13.99;95.84;100667.81;4930620;28;20044;-84
2023/05/02 03:38:18;;;;;;;9.65;7.18;;;;;;;13.96;96.22;100666.28;4938017;28;20051;-82
2023/05/02 03:40:45;;;;;;;7.35;6.50;;;;;;;14.01;96.45;100676.50;4950739;28;20066;-86
2023/05/02 03:43:12;;;;;;;7.07;6.32;;;;;;;14.04;96.46;100673.50;4936083;28;20047;-79
2023/05/02 03:45:38;;;;;;;6.45;5.85;;;;;;;13.90;95.83;100658.91;4946258;28;20770;-84
2023/05/02 03:48:05;;;;;;;8.48;6.95;;;;;;;13.70;96.06;100638.75;4963416;28;20126;-85
2023/05/02 03:50:32;;;;;;;7.28;6.55;;;;;;;13.17;96.39;100566.66;4938125;28;20047;-85
2023/05/02 03:53:05;;;;;;;7.68;6.82;;;;;;;13.87;96.89;100685.91;4931294;28;20452;-89
2023/05/02 03:55:31;;;;;;;7.82;6.47;;;;;;;13.66;97.34;100646.22;4953511;28;20556;-86
2023/05/02 03:57:58;;;;;;;8.95;6.85;;;;;;;13.99;96.80;100690.00;4960402;28;20399;-82
2023/05/02 04:00:25;;;;;;;7.15;6.45;;;;;;;14.06;97.07;100692.88;4943592;28;20668;-78
2023/05/02 04:02:53;;;;;;;7.43;6.72;;;;;;;14.07;96.03;100707.88;4948855;28;20066;-88
2023/05/02 04:05:22;;;;;;;7.13;6.33;;;;;;;13.94;96.11;100686.13;4922432;28;20046;-83
2023/05/02 04:07:49;;;;;;;6.88;5.90;;;;;;;13.75;96.18;100666.63;4941458;28;20097;-85
2023/05/02 04:10:17;;;;;;;11.10;7.28;;;;;;;13.59;96.78;100651.34;4955982;28;20425;-84
2023/05/02 04:12:49;;;;;;;7.28;6.15;;;;;;;13.97;96.83;100708.00;4911530;28;20055;-89
2023/05/02 04:15:26;;;;;;;6.90;6.30;;;;;;;13.93;97.27;100719.13;4926478;28;20226;-87
2023/05/02 04:17:59;;;;;;;7.60;6.05;;;;;;;13.98;96.41;100714.16;4936443;28;20074;-84
2023/05/02 04:20:30;;;;;;;7.80;6.38;;;;;;;13.95;95.26;100714.47;4924668;28;20085;-85
2023/05/02 04:23:00;;;;;;;6.25;5.65;;;;;;;13.89;96.76;100716.78;4946326;28;20345;-77
2023/05/02 04:25:31;;;;;;;8.20;5.85;;;;;;;13.77;96.08;100696.66;4925409;28;20094;-81
2023/05/02 04:28:00;;;;;;;7.55;6.00;;;;;;;13.81;96.45;100708.72;4937832;28;20050;-85
2023/05/02 04:30:30;;;;;;;8.02;5.95;;;;;;;13.75;96.54;100698.66;4922922;28;20042;-83
2023/05/02 04:32:59;;;;;;;6.18;5.63;;;;;;;13.86;96.92;100730.44;4924901;28;20082;-83
2023/05/02 04:35:26;;;;;;;6.38;5.75;;;;;;;13.96;96.47;100732.19;4938660;28;20050;-81
2023/05/02 04:37:58;;;;;;;9.15;5.45;;;;;;;14.08;95.86;100738.94;4953741;28;20046;-88
2023/05/02 04:40:31;;;;;;;6.63;6.03;;;;;;;13.66;95.15;100665.72;4948105;28;20085;-83
2023/05/02 04:42:59;;;;;;;6.30;5.70;;;;;;;13.51;95.26;100677.13;4936885;28;20361;-81
2023/05/02 04:45:30;;;;;;;6.85;6.15;;;;;;;13.62;96.44;100708.91;4916807;29;20544;-85
2023/05/02 04:47:56;;;;;;;11.48;7.03;;;;;;;13.74;97.21;100762.81;4942245;28;20270;-85
2023/05/02 04:50:23;;;;;;;8.57;6.65;;;;;;;13.51;96.74;100717.94;4930441;28;20127;-83
2023/05/02 04:52:53;;;;;;;7.05;6.35;;;;;;;13.75;96.60;100768.03;4907159;29;20509;-78
2023/05/02 04:55:20;;;;;;;7.88;7.07;;;;;;;13.62;97.37;100762.25;4911218;28;20047;-87
2023/05/02 04:57:47;;;;;;;6.90;6.10;;;;;;;13.74;97.34;100774.38;4963998;28;20052;-84
2023/05/02 05:00:14;;;;;;;7.05;6.35;;;;;;;13.62;96.82;100767.59;4943728;28;20054;-86
2023/05/02 05:02:41;;;;;;;8.55;6.78;;;;;;;13.65;96.90;100769.94;4947856;28;20438;-83
2023/05/02 05:05:08;;;;;;;7.55;6.80;;;;;;;13.72;96.69;100788.84;4945697;28;20047;-84
2023/05/02 05:07:36;;;;;;;7.00;6.22;;;;;;;13.62;96.63;100767.59;4956619;28;20142;-83
2023/05/02 05:10:03;;;;;;;7.28;6.57;;;;;;;13.66;96.42;100768.94;4956858;28;20332;-85
2023/05/02 05:12:29;;;;;;;7.22;6.53;;;;;;;13.73;97.41;100802.00;4936068;28;20146;-86
2023/05/02 05:14:56;;;;;;;7.18;6.47;;;;;;;12.86;96.33;100643.47;4953546;28;20062;-83
2023/05/02 05:17:22;;;;;;;8.68;7.38;;;;;;;13.65;96.20;100772.59;4938630;28;20047;-80
2023/05/02 05:19:49;;;;;;;10.88;6.32;;;;;;;13.79;95.46;100827.28;4936066;28;20056;-85
2023/05/02 05:22:18;;;;;;;7.38;6.22;;;;;;;13.56;95.54;100781.50;4962912;28;20053;-81
2023/05/02 05:24:53;;;;;;;7.70;6.95;;;;;;;13.76;95.68;100808.88;4952274;28;20128;-84
2023/05/02 05:27:20;;;;;;;7.97;6.65;;;;;;;13.77;94.97;100813.25;4971130;28;20318;-82
2023/05/02 05:29:47;;;;;;;7.05;6.03;;;;;;;13.31;94.76;100749.25;4950245;28;20082;-82
2023/05/02 05:32:13;;;;;;;7.68;6.88;;;;;;;13.59;94.95;100805.19;4938749;28;20335;-83
2023/05/02 05:34:40;;;;;;;8.52;6.30;;;;;;;13.78;95.23;100842.41;4950279;28;20520;-83
2023/05/02 05:37:07;;;;;;;10.95;7.53;;;;;;;13.48;96.04;100782.28;4938360;28;20046;-82
2023/05/02 05:39:40;;;;;;;8.13;6.90;;;;;;;13.26;95.87;100759.50;4962753;28;20490;-82
2023/05/02 05:42:08;;;;;;;6.75;5.95;;;;;;;13.81;95.54;100844.81;4938876;28;20414;-82
2023/05/02 05:44:35;;;;;;;7.63;6.82;;;;;;;13.68;95.70;100833.66;4937357;28;20245;-84
2023/05/02 05:47:02;;;;;;;8.63;7.00;;;;;;;13.72;96.19;100844.88;4938836;28;20078;-83
2023/05/02 05:49:29;;;;;;;7.43;6.72;;;;;;;13.58;95.89;100835.53;4936956;28;20869;-83
2023/05/02 05:51:56;;;;;;;8.85;7.03;;;;;;;13.72;96.51;100853.72;4945758;28;20046;-82
2023/05/02 05:54:23;;;;;;;7.30;6.70;;;;;;;12.88;96.73;100734.75;4936752;28;20468;-83
2023/05/02 05:56:54;;;;;;;7.35;6.65;;;;;;;13.84;95.37;100873.00;4932176;28;20192;-82
2023/05/02 05:59:34;;;;;;;8.13;7.05;;;;;;;13.76;94.77;100863.09;4930006;28;20211;-83
2023/05/02 06:02:18;;;;;;;7.45;6.57;;;;;;;13.85;95.26;100872.84;4963171;28;20616;-84
2023/05/02 06:04:45;;;;;;;7.25;6.55;;;;;;;13.71;95.35;100845.84;4979647;28;20085;-83
2023/05/02 06:07:15;;;;;;;8.95;6.30;;;;;;;13.84;94.82;100879.19;4959149;28;20431;-77
2023/05/02 06:09:46;;;;;;;7.20;6.40;;;;;;;13.61;95.02;100856.59;4937647;28;20124;-86
2023/05/02 06:12:15;;;;;;;9.73;8.32;;;;;;;13.78;95.41;100874.44;4925935;28;20496;-84
2023/05/02 06:14:41;;;;;;;8.20;7.43;;;;;;;13.70;95.75;100876.19;4962060;28;20137;-85
2023/05/02 06:17:08;;;;;;;9.48;7.40;;;;;;;13.37;96.15;100828.63;4925609;28;20158;-82
2023/05/02 06:19:38;;;;;;;7.47;6.78;;;;;;;13.55;95.89;100851.84;4926162;28;20053;-82
2023/05/02 06:22:04;;;;;;;7.72;6.93;;;;;;;13.31;96.35;100810.59;4969270;28;20049;-81
2023/05/02 06:24:31;;;;;;;8.13;6.30;;;;;;;13.86;95.78;100893.22;4952467;28;20144;-82
2023/05/02 06:26:59;;;;;;;8.05;6.55;;;;;;;13.81;95.99;100890.16;4974916;28;20480;-83
2023/05/02 06:29:25;;;;;;;7.13;6.15;;;;;;;13.76;95.83;100889.78;4953643;28;20190;-80
2023/05/02 06:31:55;;;;;;;7.47;6.68;;;;;;;13.83;95.94;100888.16;4950893;28;20085;-81
2023/05/02 06:34:22;;;;;;;6.90;6.20;;;;;;;13.86;95.80;100906.56;4958040;28;20525;-81
2023/05/02 06:36:58;;;;;;;7.53;5.95;;;;;;;13.82;95.91;100907.84;4964312;28;20357;-81
2023/05/02 06:39:32;;;;;;;7.90;7.20;;;;;;;13.01;96.53;100777.88;4963023;28;20057;-82
2023/05/02 06:42:00;;;;;;;6.90;6.25;;;;;;;13.78;95.92;100916.28;4961576;28;20043;-83
2023/05/02 06:44:30;;;;;;;7.95;7.15;;;;;;;13.88;95.36;100901.06;4972013;28;20304;-81
2023/05/02 06:46:58;;;;;;;7.88;7.00;;;;;;;13.77;95.36;100883.44;4973389;28;20616;-84
2023/05/02 06:49:25;;;;;;;7.80;7.10;;;;;;;13.36;95.45;100826.97;4968870;28;20060;-82
2023/05/02 06:51:52;;;;;;;7.80;6.97;;;;;;;13.87;95.83;100915.41;4950986;28;20120;-81
2023/05/02 06:54:20;;;;;;;7.30;6.55;;;;;;;13.36;95.67;100842.97;4949487;28;20547;-81
2023/05/02 06:56:47;;;;;;;7.68;6.95;;;;;;;13.92;95.71;100913.13;4967740;28;20108;-81
2023/05/02 06:59:15;;;;;;;8.77;6.90;;;;;;;13.80;95.07;100907.16;4930464;28;20047;-83
2023/05/02 07:01:45;;;;;;;9.18;7.47;;;;;;;13.75;95.52;100906.75;4934029;28;20056;-83
2023/05/02 07:04:12;;;;;;;8.52;6.85;;;;;;;13.25;95.98;100824.47;4974152;28;20046;-83
2023/05/02 07:06:39;;;;;;;8.05;7.20;;;;;;;13.90;95.27;100929.28;4951544;28;20226;-82
2023/05/02 07:09:05;;;;;;;8.98;7.03;;;;;;;13.82;95.48;100920.34;4959752;28;20457;-82
2023/05/02 07:11:32;;;;;;;7.35;6.50;;;;;;;13.68;95.43;100900.34;4972369;28;20472;-85
2023/05/02 07:13:59;;;;;;;10.45;6.50;;;;;;;13.78;95.44;100926.97;4949710;28;20054;-82
2023/05/02 07:16:27;;;;;;;6.97;6.20;;;;;;;13.81;94.64;100924.84;4975568;28;20050;-80
2023/05/02 07:18:53;;;;;;;8.20;7.05;;;;;;;13.78;94.47;100901.13;4950925;28;20552;-82
2023/05/02 07:21:20;;;;;;;6.72;6.00;;;;;;;13.85;95.00;100923.53;4968092;28;20382;-80
2023/05/02 07:23:50;;;;;;;6.70;5.85;;;;;;;13.83;94.46;100925.53;4958086;28;20398;-82
2023/05/02 07:26:17;;;;;;;9.13;6.43;;;;;;;13.76;95.10;100910.25;4968832;28;20433;-82
2023/05/02 07:28:53;;;;;;;6.78;5.93;;;;;;;13.89;94.59;100916.94;4942665;28;20057;-81
2023/05/02 07:31:20;;;;;;;6.57;5.70;;;;;;;13.84;94.70;100931.72;4885560;28;20087;-80
2023/05/02 07:33:57;;;;;;;7.43;5.95;;;;;;;13.91;94.45;100932.81;4815267;28;20426;-82
2023/05/02 07:36:27;;;;;;;7.05;6.25;;;;;;;13.89;95.04;100935.63;4884139;29;20324;-81
2023/05/02 07:38:56;;;;;;;6.43;5.80;;;;;;;13.64;95.23;100898.97;4895577;29;20055;-82
2023/05/02 07:41:27;;;;;;;6.75;6.05;;;;;;;13.76;95.40;100919.13;4892901;29;20224;-82
2023/05/02 07:43:54;;;;;;;7.05;6.03;;;;;;;13.85;95.06;100942.22;4832897;29;20388;-82
2023/05/02 07:46:21;;;;;;;8.35;7.13;;;;;;;13.56;95.57;100907.69;4879933;29;20151;-82
2023/05/02 07:48:48;;;;;;;6.55;5.85;;;;;;;13.84;95.67;100947.75;4874111;29;20554;-81
2023/05/02 07:51:15;;;;;;;6.13;5.53;;;;;;;13.77;96.12;100933.31;4875122;29;20451;-83
2023/05/02 07:53:41;;;;;;;7.07;6.03;;;;;;;13.76;96.19;100956.50;4887959;29;20359;-83
2023/05/02 07:56:08;;;;;;;6.15;5.65;;;;;;;13.78;96.59;100959.00;4903785;29;20135;-82
2023/05/02 07:58:38;;;;;;;7.40;6.28;;;;;;;13.60;96.45;100924.28;4877419;29;20373;-82
2023/05/02 08:01:04;;;;;;;6.63;6.03;;;;;;;13.72;95.55;100946.25;4944293;28;20503;-82
2023/05/02 08:03:34;;;;;;;8.10;5.93;;;;;;;13.81;95.89;100964.03;4962670;28;20054;-82
2023/05/02 08:06:01;;;;;;;8.75;5.57;;;;;;;13.73;96.69;100967.44;4946034;28;20113;-79
2023/05/02 08:08:29;;;;;;;6.60;5.88;;;;;;;13.73;96.79;100966.59;4916392;28;20630;-81
2023/05/02 08:10:55;;;;;;;6.90;5.93;;;;;;;13.21;97.16;100881.75;4931034;28;20046;-80
2023/05/02 08:13:27;;;;;;;5.90;5.20;;;;;;;13.68;96.88;100946.53;4941927;28;20050;-82
2023/05/02 08:16:02;;;;;;;6.95;6.25;;;;;;;13.89;95.67;100978.31;4942393;28;20058;-82
2023/05/02 08:18:37;;;;;;;6.35;5.72;;;;;;;13.94;95.23;100974.38;4923168;28;20567;-82
2023/05/02 08:21:04;;;;;;;6.10;5.60;;;;;;;13.80;95.55;100957.84;4963275;28;20329;-81
2023/05/02 08:23:34;;;;;;;5.82;5.32;;;;;;;12.97;95.52;100824.47;4945326;28;20058;-84
2023/05/02 08:26:17;;;;;;;5.93;5.43;;;;;;;13.89;95.60;100972.97;4926463;28;20057;-85
2023/05/02 08:28:44;;;;;;;6.70;5.55;;;;;;;13.75;95.94;100959.28;4959814;28;20661;-83
2023/05/02 08:31:11;;;;;;;6.32;5.63;;;;;;;13.71;96.18;100945.41;4985379;28;20503;-83
2023/05/02 08:33:38;;;;;;;8.27;5.93;;;;;;;13.74;96.04;100954.94;4983599;28;20409;-82
2023/05/02 08:36:14;;;;;;;8.82;5.82;;;;;;;13.87;95.64;100968.78;4973472;28;20570;-82
2023/05/02 08:38:42;;;;;;;5.82;5.22;;;;;;;13.79;95.43;100974.88;4965024;28;20058;-81
2023/05/02 08:41:17;;;;;;;6.18;5.57;;;;;;;13.83;95.92;100978.06;4941403;28;20359;-82
2023/05/02 08:43:47;;;;;;;6.00;5.47;;;;;;;13.32;96.19;100908.25;4941563;28;20530;-78
2023/05/02 08:46:15;;;;;;;6.47;5.88;;;;;;;13.86;96.01;100983.97;4965604;28;20167;-81
2023/05/02 08:48:46;;;;;;;6.70;6.10;;;;;;;13.03;96.09;100853.22;4942204;28;20073;-82
2023/05/02 08:51:17;;;;;;;6.05;5.45;;;;;;;13.73;96.17;100972.78;4963821;28;20046;-80
2023/05/02 08:53:50;;;;;;;;;;;;;;;13.83;96.15;100999.41;4951009;28;20503;-82
2023/05/02 08:56:18;;;;;;;8.90;6.25;;;;;;;13.66;96.24;100977.03;4941718;28;20379;-81
2023/05/02 08:58:45;;;;;;;6.20;5.60;;;;;;;13.83;96.24;100999.41;4944689;28;20054;-83
2023/05/02 09:01:16;;;;;;;6.45;5.47;;;;;;;13.84;96.17;100995.78;4943407;28;20045;-84
2023/05/02 09:03:45;;;;;;;6.80;5.43;;;;;;;13.77;96.27;100997.34;4951342;28;20050;-81
2023/05/02 09:06:14;;;;;;;6.75;5.95;;;;;;;13.95;96.40;101014.25;4960397;28;20747;-84
2023/05/02 09:08:43;;;;;;;7.30;5.68;;;;;;;13.36;95.41;100914.13;4961194;28;20132;-82
2023/05/02 09:11:11;;;;;;;5.70;5.20;;;;;;;13.93;96.36;101021.53;4963712;28;20062;-82
2023/05/02 09:13:46;;;;;;;6.20;5.60;;;;;;;13.88;96.28;101016.69;4951367;28;20105;-82
2023/05/02 09:16:24;;;;;;;6.13;5.53;;;;;;;13.97;96.51;101022.09;4941836;28;20533;-84
2023/05/02 09:18:54;;;;;;;6.13;5.60;;;;;;;13.92;96.64;101025.22;4960475;28;20552;-83
2023/05/02 09:21:40;;;;;;;6.13;5.53;;;;;;;13.54;96.60;100967.53;4944787;28;20097;-84
2023/05/02 09:24:21;;;;;;;7.65;5.75;;;;;;;13.85;97.32;101019.63;4942391;28;20173;-83
2023/05/02 09:27:03;;;;;;;9.88;5.95;;;;;;;13.88;97.42;101016.69;4939313;28;20050;-85
2023/05/02 09:29:39;;;;;;;6.45;5.85;;;;;;;13.90;96.99;101017.34;4936754;28;20488;-84
2023/05/02 09:32:09;;;;;;;7.40;5.90;;;;;;;13.88;96.73;101003.34;4939323;28;20051;-84
2023/05/02 09:34:39;;;;;;;6.90;6.15;;;;;;;13.64;96.71;100973.66;4957844;28;20142;-83
2023/05/02 09:37:07;;;;;;;6.65;5.55;;;;;;;13.74;96.29;100978.94;4964194;28;20065;-84
2023/05/02 09:39:33;;;;;;;5.47;4.80;;;;;;;13.92;96.75;101019.03;4945671;28;20394;-83
2023/05/02 09:42:03;;;;;;;5.43;4.85;;;;;;;13.95;95.77;101022.25;4943303;28;20046;-81
2023/05/02 09:44:39;;;;;;;6.40;5.57;;;;;;;14.06;95.99;101037.25;4944464;28;20087;-82
2023/05/02 09:47:07;;;;;;;9.27;6.05;;;;;;;12.85;95.98;100843.44;4946555;28;20681;-82
2023/05/02 09:49:44;;;;;;;7.70;6.07;;;;;;;13.98;97.07;101029.13;4929097;28;20261;-83
2023/05/02 09:52:21;;;;;;;7.30;5.68;;;;;;;13.74;96.08;100992.28;4965640;28;20271;-81
2023/05/02 09:54:51;;;;;;;6.78;5.15;;;;;;;13.53;96.59;100971.19;4958653;28;20137;-85
2023/05/02 09:57:18;;;;;;;5.68;4.78;;;;;;;13.16;96.77;100900.84;4964440;28;20483;-84
2023/05/02 09:59:55;;;;;;;6.18;5.57;;;;;;;14.02;96.21;101035.84;4962090;28;20065;-85
2023/05/02 10:02:24;;;;;;;8.68;5.43;;;;;;;13.75;94.99;100969.97;4954871;28;20069;-82
2023/05/02 10:04:56;;;;;;;5.57;4.43;;;;;;;14.18;94.97;101045.91;4944683;28;20440;-84
2023/05/02 10:07:26;;;;;;;6.07;5.40;;;;;;;13.93;95.42;101026.06;4949650;28;20055;-84
2023/05/02 10:09:59;;;;;;;8.32;6.40;;;;;;;13.70;95.49;100982.91;4946425;28;20053;-86
2023/05/02 10:12:30;;;;;;;6.07;5.25;;;;;;;13.88;96.15;101030.03;4941214;28;20046;-85
2023/05/02 10:15:02;;;;;;;7.07;5.45;;;;;;;13.88;97.24;101040.69;4943670;28;20070;-83
2023/05/02 10:17:49;;;;;;;5.85;5.25;;;;;;;13.93;97.28;101048.22;4937003;28;20058;-81
2023/05/02 10:20:25;;;;;;;8.55;5.45;;;;;;;14.02;97.30;101051.88;4935626;28;20687;-85
2023/05/02 10:22:58;;;;;;;5.45;4.95;;;;;;;13.87;97.17;101028.31;4942654;28;20421;-85
2023/05/02 10:25:26;;;;;;;6.88;6.18;;;;;;;14.00;96.83;101037.81;4937827;28;20215;-84
2023/05/02 10:27:58;;;;;;;6.60;5.32;;;;;;;14.06;97.55;101054.09;4937153;28;20090;-86
2023/05/02 10:30:29;;;;;;;7.28;5.28;;;;;;;13.37;97.07;100945.97;4939838;28;20129;-85
2023/05/02 10:32:58;;;;;;;5.95;5.35;;;;;;;13.42;97.12;100958.88;4942969;28;20093;-84
2023/05/02 10:39:13;;;;;;;7.82;6.15;;;;;;;13.94;97.62;101038.44;4932862;29;20421;-83
2023/05/02 10:41:41;;;;;;;8.48;6.90;;;;;;;13.96;97.16;101042.63;4926888;29;20405;-84
2023/05/02 10:44:09;;;;;;;6.07;5.18;;;;;;;14.04;97.78;101057.91;4888126;28;20130;-87
2023/05/02 10:46:41;;;;;;;5.97;5.38;;;;;;;14.16;97.37;101077.25;4906702;28;20383;-84
2023/05/02 10:49:09;;;;;;;6.82;5.35;;;;;;;13.84;97.71;101011.78;4910969;28;20160;-84
2023/05/02 10:51:38;;;;;;;6.13;5.30;;;;;;;14.20;97.17;101076.78;4925243;28;20477;-83
2023/05/02 10:54:22;;;;;;;6.82;5.78;;;;;;;14.22;97.21;101082.81;4938244;28;20137;-84
2023/05/02 10:57:05;;;;;;;6.25;5.57;;;;;;;14.18;98.23;101084.09;4936900;28;20339;-81
2023/05/02 10:59:50;;;;;;;6.18;5.18;;;;;;;13.91;98.44;101042.22;4923165;28;20054;-81
2023/05/02 11:02:24;;;;;;;5.35;4.82;;;;;;;13.63;97.93;100977.31;4929633;28;20070;-82
2023/05/02 11:05:06;;;;;;;6.30;4.88;;;;;;;13.82;98.06;101017.25;4927000;28;20058;-85
2023/05/02 11:07:34;;;;;;;6.57;4.97;;;;;;;14.04;98.33;101065.91;4924783;28;20146;-82
2023/05/02 11:10:17;;;;;;;5.60;4.63;;;;;;;13.86;97.85;101034.66;4941518;28;20074;-82
2023/05/02 11:12:55;;;;;;;5.40;4.85;;;;;;;14.05;98.16;101062.25;4928488;28;20321;-81
2023/05/02 11:15:26;;;;;;;5.20;4.70;;;;;;;14.21;97.97;101089.16;4934492;28;20051;-85
2023/05/02 11:18:11;;;;;;;5.50;5.00;;;;;;;14.19;98.08;101098.28;4952622;28;20600;-82
2023/05/02 11:20:43;;;;;;;6.65;5.38;;;;;;;14.08;98.46;101083.31;4936164;28;20635;-84
2023/05/02 11:23:25;;;;;;;6.07;4.72;;;;;;;13.09;98.98;100917.56;4926535;28;20471;-84
2023/05/02 11:25:59;;;;;;;5.55;4.28;;;;;;;14.08;99.39;101077.97;4921125;28;20050;-83
2023/05/02 11:28:35;;;;;;;5.63;4.57;;;;;;;14.22;98.72;101103.31;4918982;28;20062;-79
2023/05/02 11:31:03;;;;;;;5.68;4.80;;;;;;;14.27;98.14;101096.56;4918558;28;20054;-83
2023/05/02 11:33:35;;;;;;;6.65;4.80;;;;;;;14.24;98.53;101099.53;4902480;28;20404;-84
2023/05/02 11:36:07;;;;;;;7.10;4.95;;;;;;;14.39;97.95;101107.03;4897708;28;20204;-85
2023/05/02 11:38:37;;;;;;;6.57;4.65;;;;;;;14.25;98.94;101085.19;4914290;28;20055;-84
2023/05/02 11:41:07;;;;;;;5.25;4.75;;;;;;;14.13;99.19;101059.69;4914964;28;20047;-83
2023/05/02 11:43:33;;;;;;;6.28;4.22;;;;;;;14.50;98.12;101114.88;4908864;28;20055;-85
2023/05/02 11:46:21;;;;;;;5.05;4.55;;;;;;;14.08;97.79;101061.97;4897741;28;20708;-84